sensor_id;sensor_type;location;lat;lon;timestamp;pressure;altitude;pressure_sealevel;temperature;humidity
84935;BME280;75205;53.820;10.730;2023-12-28T00:01:09;100483.25;;;6.44;90.75
84935;BME280;75205;53.820;10.730;2023-12-28T00:03:36;100475.66;;;6.44;90.67
84935;BME280;75205;53.820;10.730;2023-12-28T00:06:02;100460.63;;;6.47;90.14
84935;BME280;75205;53.820;10.730;2023-12-28T00:08:29;100466.84;;;6.53;90.50
84935;BME280;75205;53.820;10.730;2023-12-28T00:10:58;100463.72;;;6.57;90.63
84935;BME280;75205;53.820;10.730;2023-12-28T00:13:24;100464.84;;;6.62;89.90
84935;BME280;75205;53.820;10.730;2023-12-28T00:15:51;100457.59;;;6.68;90.91
84935;BME280;75205;53.820;10.730;2023-12-28T00:18:17;100457.00;;;6.72;90.44
84935;BME280;75205;53.820;10.730;2023-12-28T00:20:48;100463.06;;;6.74;90.36
84935;BME280;75205;53.820;10.730;2023-12-28T00:23:15;100457.34;;;6.78;90.08
84935;BME280;75205;53.820;10.730;2023-12-28T00:25:41;100454.06;;;6.79;90.24
84935;BME280;75205;53.820;10.730;2023-12-28T00:28:07;100447.50;;;6.82;89.90
84935;BME280;75205;53.820;10.730;2023-12-28T00:30:34;100438.34;;;6.84;90.03
84935;BME280;75205;53.820;10.730;2023-12-28T00:33:01;100441.88;;;6.88;90.72
84935;BME280;75205;53.820;10.730;2023-12-28T00:35:28;100433.69;;;6.92;90.53
84935;BME280;75205;53.820;10.730;2023-12-28T00:37:55;100439.72;;;6.94;89.42
84935;BME280;75205;53.820;10.730;2023-12-28T00:40:22;100444.06;;;6.96;89.54
84935;BME280;75205;53.820;10.730;2023-12-28T00:42:48;100449.44;;;7.01;89.45
84935;BME280;75205;53.820;10.730;2023-12-28T00:45:15;100449.44;;;7.01;88.89
84935;BME280;75205;53.820;10.730;2023-12-28T00:47:42;100463.03;;;7.03;89.59
84935;BME280;75205;53.820;10.730;2023-12-28T00:50:11;100463.03;;;7.03;89.10
84935;BME280;75205;53.820;10.730;2023-12-28T00:52:43;100466.56;;;7.05;90.05
84935;BME280;75205;53.820;10.730;2023-12-28T00:55:10;100461.84;;;7.11;89.20
84935;BME280;75205;53.820;10.730;2023-12-28T00:57:37;100479.69;;;7.12;89.12
84935;BME280;75205;53.820;10.730;2023-12-28T01:00:05;100473.72;;;7.12;89.58
84935;BME280;75205;53.820;10.730;2023-12-28T01:02:32;100471.78;;;7.08;89.37
84935;BME280;75205;53.820;10.730;2023-12-28T01:05:00;100472.69;;;7.08;89.12
84935;BME280;75205;53.820;10.730;2023-12-28T01:07:26;100467.78;;;7.11;90.41
84935;BME280;75205;53.820;10.730;2023-12-28T01:09:53;100476.88;;;7.08;89.65
84935;BME280;75205;53.820;10.730;2023-12-28T01:12:20;100486.25;;;7.09;90.75
84935;BME280;75205;53.820;10.730;2023-12-28T01:14:47;100484.47;;;7.08;90.05
84935;BME280;75205;53.820;10.730;2023-12-28T01:17:13;100482.03;;;7.09;90.45
84935;BME280;75205;53.820;10.730;2023-12-28T01:19:39;100485.81;;;7.16;91.33
84935;BME280;75205;53.820;10.730;2023-12-28T01:22:06;100477.41;;;7.17;90.69
84935;BME280;75205;53.820;10.730;2023-12-28T01:24:32;100479.34;;;7.21;90.80
84935;BME280;75205;53.820;10.730;2023-12-28T01:26:59;100486.94;;;7.21;90.66
84935;BME280;75205;53.820;10.730;2023-12-28T01:29:25;100483.00;;;7.26;90.77
84935;BME280;75205;53.820;10.730;2023-12-28T01:31:52;100498.41;;;7.29;90.33
84935;BME280;75205;53.820;10.730;2023-12-28T01:34:19;100498.56;;;7.32;90.69
84935;BME280;75205;53.820;10.730;2023-12-28T01:36:45;100492.88;;;7.36;90.40
84935;BME280;75205;53.820;10.730;2023-12-28T01:39:12;100496.44;;;7.39;90.20
84935;BME280;75205;53.820;10.730;2023-12-28T01:41:39;100492.34;;;7.41;90.49
84935;BME280;75205;53.820;10.730;2023-12-28T01:44:05;100497.56;;;7.44;90.61
84935;BME280;75205;53.820;10.730;2023-12-28T01:46:32;100491.00;;;7.48;90.13
84935;BME280;75205;53.820;10.730;2023-12-28T01:48:59;100503.09;;;7.52;90.86
84935;BME280;75205;53.820;10.730;2023-12-28T01:51:27;100496.28;;;7.51;89.47
84935;BME280;75205;53.820;10.730;2023-12-28T01:53:54;100490.56;;;7.55;89.82
84935;BME280;75205;53.820;10.730;2023-12-28T01:56:21;100491.69;;;7.60;89.77
84935;BME280;75205;53.820;10.730;2023-12-28T01:58:48;100495.03;;;7.59;89.54
84935;BME280;75205;53.820;10.730;2023-12-28T02:01:15;100510.25;;;7.59;89.49
84935;BME280;75205;53.820;10.730;2023-12-28T02:03:42;100510.59;;;7.65;90.44
84935;BME280;75205;53.820;10.730;2023-12-28T02:06:09;100509.09;;;7.68;89.02
84935;BME280;75205;53.820;10.730;2023-12-28T02:08:36;100491.56;;;7.73;90.10
84935;BME280;75205;53.820;10.730;2023-12-28T02:11:03;100496.03;;;7.77;89.59
84935;BME280;75205;53.820;10.730;2023-12-28T02:13:29;100505.41;;;7.78;89.64
84935;BME280;75205;53.820;10.730;2023-12-28T02:15:58;100503.28;;;7.86;89.25
84935;BME280;75205;53.820;10.730;2023-12-28T02:18:30;100500.91;;;7.89;88.09
84935;BME280;75205;53.820;10.730;2023-12-28T02:20:58;100512.13;;;7.92;88.71
84935;BME280;75205;53.820;10.730;2023-12-28T02:23:25;100502.91;;;7.94;88.41
84935;BME280;75205;53.820;10.730;2023-12-28T02:25:51;100508.94;;;7.96;88.57
84935;BME280;75205;53.820;10.730;2023-12-28T02:28:18;100516.47;;;7.95;88.96
84935;BME280;75205;53.820;10.730;2023-12-28T02:30:45;100508.06;;;7.96;88.26
84935;BME280;75205;53.820;10.730;2023-12-28T02:33:15;100513.22;;;7.97;87.68
84935;BME280;75205;53.820;10.730;2023-12-28T02:35:52;100515.94;;;8.00;87.03
84935;BME280;75205;53.820;10.730;2023-12-28T02:38:21;100512.88;;;8.06;87.57
84935;BME280;75205;53.820;10.730;2023-12-28T02:40:49;100512.13;;;8.08;88.07
84935;BME280;75205;53.820;10.730;2023-12-28T02:43:17;100501.22;;;8.09;87.95
84935;BME280;75205;53.820;10.730;2023-12-28T02:45:43;100496.28;;;8.12;87.62
84935;BME280;75205;53.820;10.730;2023-12-28T02:48:10;100508.97;;;8.12;87.62
84935;BME280;75205;53.820;10.730;2023-12-28T02:50:36;100519.31;;;8.15;87.73
84935;BME280;75205;53.820;10.730;2023-12-28T02:53:03;100515.97;;;8.16;87.61
84935;BME280;75205;53.820;10.730;2023-12-28T02:55:30;100509.44;;;8.21;87.83
84935;BME280;75205;53.820;10.730;2023-12-28T02:57:57;100509.75;;;8.26;88.83
84935;BME280;75205;53.820;10.730;2023-12-28T03:00:28;100506.75;;;8.18;86.62
84935;BME280;75205;53.820;10.730;2023-12-28T03:02:55;100506.59;;;8.15;87.09
84935;BME280;75205;53.820;10.730;2023-12-28T03:05:22;100513.34;;;8.15;87.63
84935;BME280;75205;53.820;10.730;2023-12-28T03:07:49;100506.53;;;8.14;87.96
84935;BME280;75205;53.820;10.730;2023-12-28T03:10:16;100518.25;;;8.12;87.85
84935;BME280;75205;53.820;10.730;2023-12-28T03:12:42;100524.22;;;8.12;87.39
84935;BME280;75205;53.820;10.730;2023-12-28T03:15:09;100523.41;;;8.13;89.02
84935;BME280;75205;53.820;10.730;2023-12-28T03:17:35;100520.09;;;8.14;87.18
84935;BME280;75205;53.820;10.730;2023-12-28T03:20:03;100513.09;;;8.10;86.88
84935;BME280;75205;53.820;10.730;2023-12-28T03:22:30;100519.91;;;8.11;87.47
84935;BME280;75205;53.820;10.730;2023-12-28T03:24:57;100515.03;;;8.14;87.80
84935;BME280;75205;53.820;10.730;2023-12-28T03:27:24;100516.41;;;8.24;87.89
84935;BME280;75205;53.820;10.730;2023-12-28T03:29:50;100514.75;;;8.24;87.09
84935;BME280;75205;53.820;10.730;2023-12-28T03:32:17;100527.25;;;8.21;86.68
84935;BME280;75205;53.820;10.730;2023-12-28T03:34:43;100515.53;;;8.23;86.56
84935;BME280;75205;53.820;10.730;2023-12-28T03:37:10;100520.97;;;8.29;86.48
84935;BME280;75205;53.820;10.730;2023-12-28T03:39:37;100513.25;;;8.28;86.21
84935;BME280;75205;53.820;10.730;2023-12-28T03:42:04;100517.19;;;8.23;86.32
84935;BME280;75205;53.820;10.730;2023-12-28T03:44:31;100525.50;;;8.20;87.56
84935;BME280;75205;53.820;10.730;2023-12-28T03:46:58;100524.16;;;8.11;86.66
84935;BME280;75205;53.820;10.730;2023-12-28T03:49:24;100524.00;;;8.08;86.85
84935;BME280;75205;53.820;10.730;2023-12-28T03:51:51;100517.50;;;8.13;87.22
84935;BME280;75205;53.820;10.730;2023-12-28T03:54:18;100524.38;;;8.15;86.38
84935;BME280;75205;53.820;10.730;2023-12-28T03:56:46;100529.47;;;8.15;87.50
84935;BME280;75205;53.820;10.730;2023-12-28T03:59:12;100522.00;;;8.18;86.80
84935;BME280;75205;53.820;10.730;2023-12-28T04:01:39;100518.50;;;8.16;86.56
84935;BME280;75205;53.820;10.730;2023-12-28T04:04:06;100537.09;;;8.15;86.70
84935;BME280;75205;53.820;10.730;2023-12-28T04:06:33;100528.34;;;8.10;86.53
84935;BME280;75205;53.820;10.730;2023-12-28T04:08:59;100520.09;;;8.14;86.94
84935;BME280;75205;53.820;10.730;2023-12-28T04:11:26;100512.22;;;8.10;85.88
84935;BME280;75205;53.820;10.730;2023-12-28T04:13:52;100522.47;;;8.11;87.70
84935;BME280;75205;53.820;10.730;2023-12-28T04:16:19;100526.91;;;8.15;88.20
84935;BME280;75205;53.820;10.730;2023-12-28T04:18:46;100521.38;;;8.22;85.47
84935;BME280;75205;53.820;10.730;2023-12-28T04:21:13;100515.34;;;8.20;87.06
84935;BME280;75205;53.820;10.730;2023-12-28T04:23:40;100523.91;;;8.22;86.75
84935;BME280;75205;53.820;10.730;2023-12-28T04:26:07;100511.16;;;8.21;87.74
84935;BME280;75205;53.820;10.730;2023-12-28T04:28:34;100514.31;;;8.17;87.00
84935;BME280;75205;53.820;10.730;2023-12-28T04:31:02;100517.13;;;8.07;86.58
84935;BME280;75205;53.820;10.730;2023-12-28T04:33:29;100514.97;;;7.98;86.74
84935;BME280;75205;53.820;10.730;2023-12-28T04:35:55;100515.78;;;7.97;86.93
84935;BME280;75205;53.820;10.730;2023-12-28T04:38:22;100516.53;;;7.96;86.77
84935;BME280;75205;53.820;10.730;2023-12-28T04:40:49;100519.88;;;7.95;86.78
84935;BME280;75205;53.820;10.730;2023-12-28T04:43:16;100515.78;;;7.97;87.09
84935;BME280;75205;53.820;10.730;2023-12-28T04:45:42;100507.19;;;7.95;85.94
84935;BME280;75205;53.820;10.730;2023-12-28T04:48:09;100513.84;;;7.93;86.39
84935;BME280;75205;53.820;10.730;2023-12-28T04:50:35;100524.97;;;7.95;86.38
84935;BME280;75205;53.820;10.730;2023-12-28T04:53:04;100519.09;;;7.96;86.44
84935;BME280;75205;53.820;10.730;2023-12-28T04:55:31;100514.00;;;7.96;88.47
84935;BME280;75205;53.820;10.730;2023-12-28T04:57:57;100512.28;;;7.95;87.86
84935;BME280;75205;53.820;10.730;2023-12-28T05:00:24;100503.00;;;7.96;87.38
84935;BME280;75205;53.820;10.730;2023-12-28T05:02:50;100507.91;;;7.93;87.18
84935;BME280;75205;53.820;10.730;2023-12-28T05:05:17;100500.19;;;7.91;86.81
84935;BME280;75205;53.820;10.730;2023-12-28T05:07:43;100501.00;;;7.90;87.15
84935;BME280;75205;53.820;10.730;2023-12-28T05:10:10;100508.69;;;7.92;87.01
84935;BME280;75205;53.820;10.730;2023-12-28T05:12:36;100512.72;;;7.88;88.54
84935;BME280;75205;53.820;10.730;2023-12-28T05:15:06;100515.44;;;7.91;87.51
84935;BME280;75205;53.820;10.730;2023-12-28T05:17:32;100512.72;;;7.88;88.74
84935;BME280;75205;53.820;10.730;2023-12-28T05:19:59;100523.69;;;7.87;87.15
84935;BME280;75205;53.820;10.730;2023-12-28T05:22:26;100511.88;;;7.88;88.18
84935;BME280;75205;53.820;10.730;2023-12-28T05:24:52;100515.25;;;7.88;87.59
84935;BME280;75205;53.820;10.730;2023-12-28T05:27:19;100520.41;;;7.90;87.53
84935;BME280;75205;53.820;10.730;2023-12-28T05:29:46;100518.59;;;7.87;88.33
84935;BME280;75205;53.820;10.730;2023-12-28T05:32:12;100526.16;;;7.86;88.25
84935;BME280;75205;53.820;10.730;2023-12-28T05:34:39;100521.16;;;7.87;86.41
84935;BME280;75205;53.820;10.730;2023-12-28T05:37:05;100529.97;;;7.94;87.55
84935;BME280;75205;53.820;10.730;2023-12-28T05:39:31;100514.00;;;7.96;87.60
84935;BME280;75205;53.820;10.730;2023-12-28T05:41:58;100510.69;;;7.97;87.97
84935;BME280;75205;53.820;10.730;2023-12-28T05:44:25;100490.69;;;7.87;88.66
84935;BME280;75205;53.820;10.730;2023-12-28T05:46:51;100504.72;;;7.97;87.31
84935;BME280;75205;53.820;10.730;2023-12-28T05:49:18;100500.03;;;7.88;86.15
84935;BME280;75205;53.820;10.730;2023-12-28T05:51:45;100510.19;;;7.88;87.18
84935;BME280;75205;53.820;10.730;2023-12-28T05:54:11;100512.66;;;7.87;86.80
84935;BME280;75205;53.820;10.730;2023-12-28T05:56:37;100522.28;;;7.92;86.93
84935;BME280;75205;53.820;10.730;2023-12-28T05:59:04;100518.16;;;7.94;87.36
84935;BME280;75205;53.820;10.730;2023-12-28T06:01:31;100507.47;;;7.85;86.34
84935;BME280;75205;53.820;10.730;2023-12-28T06:03:58;100527.34;;;7.92;88.58
84935;BME280;75205;53.820;10.730;2023-12-28T06:06:24;100518.56;;;8.02;87.31
84935;BME280;75205;53.820;10.730;2023-12-28T06:08:51;100535.72;;;8.06;87.15
84935;BME280;75205;53.820;10.730;2023-12-28T06:11:18;100524.44;;;8.01;86.36
84935;BME280;75205;53.820;10.730;2023-12-28T06:13:44;100526.09;;;8.00;87.91
84935;BME280;75205;53.820;10.730;2023-12-28T06:16:11;100525.41;;;8.03;87.29
84935;BME280;75205;53.820;10.730;2023-12-28T06:18:38;100526.53;;;8.08;87.54
84935;BME280;75205;53.820;10.730;2023-12-28T06:21:04;100527.06;;;8.18;86.69
84935;BME280;75205;53.820;10.730;2023-12-28T06:23:32;100522.16;;;8.21;87.23
84935;BME280;75205;53.820;10.730;2023-12-28T06:26:03;100519.47;;;8.18;86.38
84935;BME280;75205;53.820;10.730;2023-12-28T06:28:30;100513.75;;;8.22;86.93
84935;BME280;75205;53.820;10.730;2023-12-28T06:30:57;100511.16;;;8.21;86.61
84935;BME280;75205;53.820;10.730;2023-12-28T06:33:27;100505.78;;;8.16;87.35
84935;BME280;75205;53.820;10.730;2023-12-28T06:35:55;100505.56;;;8.12;86.68
84935;BME280;75205;53.820;10.730;2023-12-28T06:38:24;100518.69;;;8.19;87.28
84935;BME280;75205;53.820;10.730;2023-12-28T06:40:51;100508.69;;;8.22;86.77
84935;BME280;75205;53.820;10.730;2023-12-28T06:43:18;100519.19;;;8.28;87.57
84935;BME280;75205;53.820;10.730;2023-12-28T06:45:44;100515.72;;;8.42;86.08
84935;BME280;75205;53.820;10.730;2023-12-28T06:48:12;100495.22;;;8.55;87.25
84935;BME280;75205;53.820;10.730;2023-12-28T06:50:39;100487.13;;;8.62;86.38
84935;BME280;75205;53.820;10.730;2023-12-28T06:53:05;100499.03;;;8.63;85.72
84935;BME280;75205;53.820;10.730;2023-12-28T06:55:32;100485.53;;;8.64;85.05
84935;BME280;75205;53.820;10.730;2023-12-28T06:57:58;100485.53;;;8.64;86.36
84935;BME280;75205;53.820;10.730;2023-12-28T07:00:25;100497.44;;;8.65;84.61
84935;BME280;75205;53.820;10.730;2023-12-28T07:02:52;100493.16;;;8.64;87.71
84935;BME280;75205;53.820;10.730;2023-12-28T07:05:19;100476.97;;;8.62;86.34
84935;BME280;75205;53.820;10.730;2023-12-28T07:07:46;100492.66;;;8.71;86.92
84935;BME280;75205;53.820;10.730;2023-12-28T07:10:12;100498.22;;;8.80;85.19
84935;BME280;75205;53.820;10.730;2023-12-28T07:12:39;100503.59;;;8.86;84.60
84935;BME280;75205;53.820;10.730;2023-12-28T07:15:05;100505.22;;;8.84;85.58
84935;BME280;75205;53.820;10.730;2023-12-28T07:17:32;100486.75;;;8.88;84.38
84935;BME280;75205;53.820;10.730;2023-12-28T07:19:59;100490.41;;;8.93;84.46
84935;BME280;75205;53.820;10.730;2023-12-28T07:22:26;100499.63;;;9.08;84.50
84935;BME280;75205;53.820;10.730;2023-12-28T07:24:53;100499.41;;;9.21;82.91
84935;BME280;75205;53.820;10.730;2023-12-28T07:27:19;100486.13;;;9.26;84.15
84935;BME280;75205;53.820;10.730;2023-12-28T07:29:45;100486.97;;;9.27;82.46
84935;BME280;75205;53.820;10.730;2023-12-28T07:32:12;100483.47;;;9.25;83.84
84935;BME280;75205;53.820;10.730;2023-12-28T07:34:40;100483.78;;;9.31;86.81
84935;BME280;75205;53.820;10.730;2023-12-28T07:37:07;100460.97;;;9.32;82.86
84935;BME280;75205;53.820;10.730;2023-12-28T07:39:33;100476.38;;;9.35;84.36
84935;BME280;75205;53.820;10.730;2023-12-28T07:42:00;100478.63;;;9.29;83.52
84935;BME280;75205;53.820;10.730;2023-12-28T07:44:27;100488.50;;;9.23;83.11
84935;BME280;75205;53.820;10.730;2023-12-28T07:46:53;100483.78;;;9.31;84.15
84935;BME280;75205;53.820;10.730;2023-12-28T07:49:19;100508.69;;;9.36;84.77
84935;BME280;75205;53.820;10.730;2023-12-28T07:51:47;100496.75;;;9.35;82.68
84935;BME280;75205;53.820;10.730;2023-12-28T07:54:13;100499.13;;;9.32;82.76
84935;BME280;75205;53.820;10.730;2023-12-28T07:56:39;100490.47;;;9.29;82.96
84935;BME280;75205;53.820;10.730;2023-12-28T07:59:06;100497.47;;;9.33;85.25
84935;BME280;75205;53.820;10.730;2023-12-28T08:01:35;100481.78;;;9.41;82.70
84935;BME280;75205;53.820;10.730;2023-12-28T08:04:01;100483.16;;;9.52;83.13
84935;BME280;75205;53.820;10.730;2023-12-28T08:06:28;100480.53;;;9.51;84.42
84935;BME280;75205;53.820;10.730;2023-12-28T08:08:57;100491.34;;;9.47;82.73
84935;BME280;75205;53.820;10.730;2023-12-28T08:11:25;100485.63;;;9.51;84.81
84935;BME280;75205;53.820;10.730;2023-12-28T08:13:51;100493.41;;;9.54;82.00
84935;BME280;75205;53.820;10.730;2023-12-28T08:16:18;100489.78;;;9.49;82.01
84935;BME280;75205;53.820;10.730;2023-12-28T08:18:44;100496.59;;;9.50;85.26
84935;BME280;75205;53.820;10.730;2023-12-28T08:21:11;100482.19;;;9.50;80.98
84935;BME280;75205;53.820;10.730;2023-12-28T08:23:37;100479.31;;;9.43;81.28
84935;BME280;75205;53.820;10.730;2023-12-28T08:26:04;100498.22;;;9.48;82.91
84935;BME280;75205;53.820;10.730;2023-12-28T08:28:31;100493.53;;;9.57;84.47
84935;BME280;75205;53.820;10.730;2023-12-28T08:30:57;100493.03;;;9.64;82.00
84935;BME280;75205;53.820;10.730;2023-12-28T08:33:24;100491.38;;;9.64;80.29
84935;BME280;75205;53.820;10.730;2023-12-28T08:35:51;100481.34;;;9.67;83.73
84935;BME280;75205;53.820;10.730;2023-12-28T08:38:17;100473.91;;;9.72;80.86
84935;BME280;75205;53.820;10.730;2023-12-28T08:40:44;100494.78;;;9.82;82.34
84935;BME280;75205;53.820;10.730;2023-12-28T08:43:10;100483.63;;;9.98;83.81
84935;BME280;75205;53.820;10.730;2023-12-28T08:45:37;100478.66;;;10.18;82.43
84935;BME280;75205;53.820;10.730;2023-12-28T08:48:04;100464.78;;;10.31;80.61
84935;BME280;75205;53.820;10.730;2023-12-28T08:50:31;100483.56;;;10.33;81.62
84935;BME280;75205;53.820;10.730;2023-12-28T08:52:58;100467.28;;;10.30;80.20
84935;BME280;75205;53.820;10.730;2023-12-28T08:55:24;100460.84;;;10.38;80.84
84935;BME280;75205;53.820;10.730;2023-12-28T08:57:51;100453.44;;;10.44;79.68
84935;BME280;75205;53.820;10.730;2023-12-28T09:00:17;100462.84;;;10.45;80.26
84935;BME280;75205;53.820;10.730;2023-12-28T09:02:44;100473.91;;;10.45;78.42
84935;BME280;75205;53.820;10.730;2023-12-28T09:05:11;100475.03;;;10.52;80.14
84935;BME280;75205;53.820;10.730;2023-12-28T09:07:37;100470.22;;;10.58;78.93
84935;BME280;75205;53.820;10.730;2023-12-28T09:10:10;100482.16;;;10.59;78.68
84935;BME280;75205;53.820;10.730;2023-12-28T09:12:37;100460.88;;;10.58;77.42
84935;BME280;75205;53.820;10.730;2023-12-28T09:15:04;100477.34;;;10.65;80.64
84935;BME280;75205;53.820;10.730;2023-12-28T09:17:31;100463.91;;;10.69;76.46
84935;BME280;75205;53.820;10.730;2023-12-28T09:19:58;100469.19;;;10.73;77.25
84935;BME280;75205;53.820;10.730;2023-12-28T09:22:24;100482.88;;;10.75;76.83
84935;BME280;75205;53.820;10.730;2023-12-28T09:24:51;100477.50;;;10.88;78.71
84935;BME280;75205;53.820;10.730;2023-12-28T09:27:17;100492.53;;;11.01;78.06
84935;BME280;75205;53.820;10.730;2023-12-28T09:29:44;100473.31;;;11.09;76.30
84935;BME280;75205;53.820;10.730;2023-12-28T09:32:11;100484.50;;;11.13;77.92
84935;BME280;75205;53.820;10.730;2023-12-28T09:34:38;100475.16;;;11.13;75.92
84935;BME280;75205;53.820;10.730;2023-12-28T09:37:06;100467.88;;;11.22;76.96
84935;BME280;75205;53.820;10.730;2023-12-28T09:39:32;100483.38;;;11.27;78.79
84935;BME280;75205;53.820;10.730;2023-12-28T09:42:00;100458.84;;;11.30;75.69
84935;BME280;75205;53.820;10.730;2023-12-28T09:44:30;100462.28;;;11.52;74.67
84935;BME280;75205;53.820;10.730;2023-12-28T09:46:56;100479.41;;;11.75;77.15
84935;BME280;75205;53.820;10.730;2023-12-28T09:49:24;100490.31;;;11.93;73.94
84935;BME280;75205;53.820;10.730;2023-12-28T09:51:51;100478.00;;;12.05;72.02
84935;BME280;75205;53.820;10.730;2023-12-28T09:54:17;100459.44;;;12.10;72.92
84935;BME280;75205;53.820;10.730;2023-12-28T09:56:44;100460.13;;;12.05;73.11
84935;BME280;75205;53.820;10.730;2023-12-28T09:59:11;100465.91;;;12.01;75.36
84935;BME280;75205;53.820;10.730;2023-12-28T10:01:38;100472.31;;;11.90;74.01
84935;BME280;75205;53.820;10.730;2023-12-28T10:04:05;100476.13;;;11.79;74.70
84935;BME280;75205;53.820;10.730;2023-12-28T10:06:34;100473.25;;;11.70;74.12
84935;BME280;75205;53.820;10.730;2023-12-28T10:09:01;100458.44;;;11.63;71.61
84935;BME280;75205;53.820;10.730;2023-12-28T10:11:27;100461.78;;;11.62;73.09
84935;BME280;75205;53.820;10.730;2023-12-28T10:13:55;100452.09;;;11.53;72.97
84935;BME280;75205;53.820;10.730;2023-12-28T10:16:21;100462.31;;;11.53;73.65
84935;BME280;75205;53.820;10.730;2023-12-28T10:18:47;100444.50;;;11.55;75.31
84935;BME280;75205;53.820;10.730;2023-12-28T10:21:14;100449.63;;;11.55;72.58
84935;BME280;75205;53.820;10.730;2023-12-28T10:23:41;100445.19;;;11.71;75.91
84935;BME280;75205;53.820;10.730;2023-12-28T10:26:07;100448.44;;;11.89;72.01
84935;BME280;75205;53.820;10.730;2023-12-28T10:28:35;100444.53;;;11.99;72.05
84935;BME280;75205;53.820;10.730;2023-12-28T10:31:07;100456.84;;;11.87;72.43
84935;BME280;75205;53.820;10.730;2023-12-28T10:33:34;100449.19;;;11.87;72.96
84935;BME280;75205;53.820;10.730;2023-12-28T10:36:09;100439.09;;;11.90;71.00
84935;BME280;75205;53.820;10.730;2023-12-28T10:38:37;100453.59;;;11.91;71.76
84935;BME280;75205;53.820;10.730;2023-12-28T10:41:05;100444.06;;;11.87;70.82
84935;BME280;75205;53.820;10.730;2023-12-28T10:46:12;100450.81;;;11.85;70.70
84935;BME280;75205;53.820;10.730;2023-12-28T10:48:42;100461.69;;;11.79;71.48
84935;BME280;75205;53.820;10.730;2023-12-28T10:51:09;100457.00;;;11.90;70.23
84935;BME280;75205;53.820;10.730;2023-12-28T11:01:28;100456.28;;;11.94;71.13
84935;BME280;75205;53.820;10.730;2023-12-28T11:03:59;100451.03;;;11.91;72.18
84935;BME280;75205;53.820;10.730;2023-12-28T11:06:30;100465.34;;;11.86;71.30
84935;BME280;75205;53.820;10.730;2023-12-28T11:08:57;100460.16;;;11.84;71.15
84935;BME280;75205;53.820;10.730;2023-12-28T11:11:25;100464.41;;;11.84;71.83
84935;BME280;75205;53.820;10.730;2023-12-28T11:13:52;100450.47;;;11.76;72.33
84935;BME280;75205;53.820;10.730;2023-12-28T11:16:18;100452.78;;;11.70;70.43
84935;BME280;75205;53.820;10.730;2023-12-28T11:18:46;100464.03;;;12.19;72.46
84935;BME280;75205;53.820;10.730;2023-12-28T11:21:14;100446.47;;;13.00;66.74
84935;BME280;75205;53.820;10.730;2023-12-28T11:23:41;100440.34;;;13.20;65.64
84935;BME280;75205;53.820;10.730;2023-12-28T11:26:42;100451.56;;;13.50;64.66
84935;BME280;75205;53.820;10.730;2023-12-28T11:29:02;100444.16;;;12.83;66.91
84935;BME280;75205;53.820;10.730;2023-12-28T11:31:33;100435.28;;;12.48;67.66
84935;BME280;75205;53.820;10.730;2023-12-28T11:34:06;100448.38;;;12.10;69.22
84935;BME280;75205;53.820;10.730;2023-12-28T11:36:40;100453.72;;;11.94;70.22
84935;BME280;75205;53.820;10.730;2023-12-28T11:39:10;100456.16;;;11.91;69.98
84935;BME280;75205;53.820;10.730;2023-12-28T11:41:36;100467.91;;;11.86;70.85
84935;BME280;75205;53.820;10.730;2023-12-28T11:44:03;100457.91;;;11.70;70.62
84935;BME280;75205;53.820;10.730;2023-12-28T11:46:31;100461.78;;;11.62;70.59
84935;BME280;75205;53.820;10.730;2023-12-28T11:49:08;100465.06;;;11.58;70.44
84935;BME280;75205;53.820;10.730;2023-12-28T11:51:36;100454.94;;;11.61;71.48
84935;BME280;75205;53.820;10.730;2023-12-28T11:54:04;100455.84;;;11.61;70.15
84935;BME280;75205;53.820;10.730;2023-12-28T11:56:31;100482.47;;;11.66;72.19
84935;BME280;75205;53.820;10.730;2023-12-28T11:58:59;100454.34;;;11.66;70.31
84935;BME280;75205;53.820;10.730;2023-12-28T12:01:26;100458.75;;;11.70;70.54
84935;BME280;75205;53.820;10.730;2023-12-28T12:03:53;100456.97;;;11.68;69.93
84935;BME280;75205;53.820;10.730;2023-12-28T12:06:20;100456.19;;;11.70;71.47
84935;BME280;75205;53.820;10.730;2023-12-28T12:08:47;100441.63;;;11.68;70.38
84935;BME280;75205;53.820;10.730;2023-12-28T12:11:13;100451.91;;;11.69;71.44
84935;BME280;75205;53.820;10.730;2023-12-28T12:13:39;100444.13;;;11.66;71.07
84935;BME280;75205;53.820;10.730;2023-12-28T12:16:06;100440.66;;;11.64;70.37
84935;BME280;75205;53.820;10.730;2023-12-28T12:18:34;100443.25;;;11.66;70.57
84935;BME280;75205;53.820;10.730;2023-12-28T12:21:01;100441.63;;;11.68;70.27
84935;BME280;75205;53.820;10.730;2023-12-28T12:23:28;100445.13;;;11.70;70.87
84935;BME280;75205;53.820;10.730;2023-12-28T12:25:54;100454.69;;;11.75;70.05
84935;BME280;75205;53.820;10.730;2023-12-28T12:28:21;100450.69;;;11.82;71.00
84935;BME280;75205;53.820;10.730;2023-12-28T12:30:52;100453.97;;;11.78;70.70
84935;BME280;75205;53.820;10.730;2023-12-28T12:33:20;100451.34;;;11.76;71.27
84935;BME280;75205;53.820;10.730;2023-12-28T12:35:47;100442.81;;;11.76;71.32
84935;BME280;75205;53.820;10.730;2023-12-28T12:38:13;100448.78;;;11.76;70.68
84935;BME280;75205;53.820;10.730;2023-12-28T12:40:40;100457.50;;;11.81;71.80
84935;BME280;75205;53.820;10.730;2023-12-28T12:43:07;100455.94;;;11.85;70.92
84935;BME280;75205;53.820;10.730;2023-12-28T12:45:35;100455.78;;;11.82;70.97
84935;BME280;75205;53.820;10.730;2023-12-28T12:48:06;100448.47;;;11.69;71.50
84935;BME280;75205;53.820;10.730;2023-12-28T12:50:32;100454.31;;;11.65;71.54
84935;BME280;75205;53.820;10.730;2023-12-28T12:52:59;100447.44;;;11.64;71.54
84935;BME280;75205;53.820;10.730;2023-12-28T12:55:27;100438.09;;;11.64;73.36
84935;BME280;75205;53.820;10.730;2023-12-28T12:57:54;100453.34;;;11.63;71.74